sensor_id;sensor_type;location;lat;lon;timestamp;pressure;altitude;pressure_sealevel;temperature;humidity
8298;BME280;4187;42.778;23.242;2022-12-18T00:01:59;96057.69;;;6.23;100.00
8298;BME280;4187;42.778;23.242;2022-12-18T00:04:27;96064.81;;;6.21;100.00
8298;BME280;4187;42.778;23.242;2022-12-18T00:06:54;96065.75;;;6.20;100.00
8298;BME280;4187;42.778;23.242;2022-12-18T00:09:20;96063.78;;;6.24;100.00
8298;BME280;4187;42.778;23.242;2022-12-18T00:11:47;96071.50;;;6.13;100.00
8298;BME280;4187;42.778;23.242;2022-12-18T00:14:14;96061.75;;;6.15;100.00
8298;BME280;4187;42.778;23.242;2022-12-18T00:16:45;96069.59;;;6.15;100.00
8298;BME280;4187;42.778;23.242;2022-12-18T00:19:12;96051.22;;;6.02;100.00
8298;BME280;4187;42.778;23.242;2022-12-18T00:21:40;96080.94;;;6.15;100.00
8298;BME280;4187;42.778;23.242;2022-12-18T00:24:08;96074.41;;;6.08;100.00
8298;BME280;4187;42.778;23.242;2022-12-18T00:26:35;96089.84;;;6.13;100.00
8298;BME280;4187;42.778;23.242;2022-12-18T00:29:05;96087.97;;;6.00;100.00
8298;BME280;4187;42.778;23.242;2022-12-18T00:31:33;96095.94;;;5.99;100.00
8298;BME280;4187;42.778;23.242;2022-12-18T00:34:01;96100.03;;;6.03;100.00
8298;BME280;4187;42.778;23.242;2022-12-18T00:36:31;96097.00;;;5.96;100.00
8298;BME280;4187;42.778;23.242;2022-12-18T00:39:00;96090.91;;;5.96;100.00
8298;BME280;4187;42.778;23.242;2022-12-18T00:41:27;96100.66;;;5.94;100.00
8298;BME280;4187;42.778;23.242;2022-12-18T00:44:13;96099.69;;;5.95;100.00
8298;BME280;4187;42.778;23.242;2022-12-18T00:46:41;96107.28;;;5.99;100.00
8298;BME280;4187;42.778;23.242;2022-12-18T00:49:13;96100.91;;;5.89;100.00
8298;BME280;4187;42.778;23.242;2022-12-18T00:51:40;96091.66;;;5.84;100.00
8298;BME280;4187;42.778;23.242;2022-12-18T00:54:07;96103.47;;;5.91;100.00
8298;BME280;4187;42.778;23.242;2022-12-18T00:56:35;96111.69;;;5.85;100.00
8298;BME280;4187;42.778;23.242;2022-12-18T00:59:02;96110.25;;;5.79;100.00
8298;BME280;4187;42.778;23.242;2022-12-18T01:01:29;96110.25;;;5.79;100.00
8298;BME280;4187;42.778;23.242;2022-12-18T01:03:57;96103.84;;;5.85;100.00
8298;BME280;4187;42.778;23.242;2022-12-18T01:06:25;96107.66;;;5.79;100.00
8298;BME280;4187;42.778;23.242;2022-12-18T01:08:52;96115.50;;;5.79;100.00
8298;BME280;4187;42.778;23.242;2022-12-18T01:11:20;96123.94;;;5.70;100.00
8298;BME280;4187;42.778;23.242;2022-12-18T01:13:47;96118.53;;;5.59;100.00
8298;BME280;4187;42.778;23.242;2022-12-18T01:16:16;96100.50;;;5.40;100.00
8298;BME280;4187;42.778;23.242;2022-12-18T01:18:44;96091.41;;;5.32;100.00
8298;BME280;4187;42.778;23.242;2022-12-18T01:21:12;96119.28;;;5.47;100.00
8298;BME280;4187;42.778;23.242;2022-12-18T01:23:41;96120.28;;;5.44;100.00
8298;BME280;4187;42.778;23.242;2022-12-18T01:26:13;96136.00;;;5.44;100.00
8298;BME280;4187;42.778;23.242;2022-12-18T01:28:40;96135.25;;;5.42;100.00
8298;BME280;4187;42.778;23.242;2022-12-18T01:31:12;96132.91;;;5.38;100.00
8298;BME280;4187;42.778;23.242;2022-12-18T01:33:39;96137.50;;;5.34;100.00
8298;BME280;4187;42.778;23.242;2022-12-18T01:36:06;96136.09;;;5.29;100.00
8298;BME280;4187;42.778;23.242;2022-12-18T01:38:33;96142.91;;;5.31;100.00
8298;BME280;4187;42.778;23.242;2022-12-18T01:41:02;96139.81;;;5.25;100.00
8298;BME280;4187;42.778;23.242;2022-12-18T01:43:44;96148.63;;;5.24;100.00
8298;BME280;4187;42.778;23.242;2022-12-18T01:46:11;96146.75;;;5.26;100.00
8298;BME280;4187;42.778;23.242;2022-12-18T01:48:38;96144.97;;;5.26;100.00
8298;BME280;4187;42.778;23.242;2022-12-18T01:51:08;96151.97;;;5.26;100.00
8298;BME280;4187;42.778;23.242;2022-12-18T01:53:37;96129.78;;;5.03;100.00
8298;BME280;4187;42.778;23.242;2022-12-18T01:56:07;96154.38;;;5.15;100.00
8298;BME280;4187;42.778;23.242;2022-12-18T01:58:41;96158.59;;;5.17;100.00
8298;BME280;4187;42.778;23.242;2022-12-18T02:01:09;96145.31;;;5.06;100.00
8298;BME280;4187;42.778;23.242;2022-12-18T02:03:36;96166.38;;;5.19;100.00
8298;BME280;4187;42.778;23.242;2022-12-18T02:06:09;96142.59;;;5.08;100.00
8298;BME280;4187;42.778;23.242;2022-12-18T02:08:43;96165.59;;;5.17;100.00
8298;BME280;4187;42.778;23.242;2022-12-18T02:11:23;96159.22;;;5.07;100.00
8298;BME280;4187;42.778;23.242;2022-12-18T02:14:01;96161.63;;;4.96;100.00
8298;BME280;4187;42.778;23.242;2022-12-18T02:16:36;96167.22;;;4.90;100.00
8298;BME280;4187;42.778;23.242;2022-12-18T02:19:13;96165.72;;;4.86;100.00
8298;BME280;4187;42.778;23.242;2022-12-18T02:21:49;96165.22;;;4.79;100.00
8298;BME280;4187;42.778;23.242;2022-12-18T02:24:29;96167.66;;;4.82;100.00
8298;BME280;4187;42.778;23.242;2022-12-18T02:27:01;96166.81;;;4.81;100.00
8298;BME280;4187;42.778;23.242;2022-12-18T02:29:31;96176.81;;;4.75;100.00
8298;BME280;4187;42.778;23.242;2022-12-18T02:31:59;96172.22;;;4.78;100.00
8298;BME280;4187;42.778;23.242;2022-12-18T02:34:29;96182.47;;;4.67;100.00
8298;BME280;4187;42.778;23.242;2022-12-18T02:36:59;96181.03;;;4.62;100.00
8298;BME280;4187;42.778;23.242;2022-12-18T02:39:29;96183.66;;;4.62;100.00
8298;BME280;4187;42.778;23.242;2022-12-18T02:41:58;96190.66;;;4.61;100.00
8298;BME280;4187;42.778;23.242;2022-12-18T02:44:27;96187.38;;;4.58;100.00
8298;BME280;4187;42.778;23.242;2022-12-18T02:46:54;96186.63;;;4.56;100.00
8298;BME280;4187;42.778;23.242;2022-12-18T02:49:32;96138.84;;;4.22;100.00
8298;BME280;4187;42.778;23.242;2022-12-18T02:52:06;96188.72;;;4.49;100.00
8298;BME280;4187;42.778;23.242;2022-12-18T02:54:45;96181.41;;;4.40;100.00
8298;BME280;4187;42.778;23.242;2022-12-18T02:57:24;96196.25;;;4.40;100.00
8298;BME280;4187;42.778;23.242;2022-12-18T02:59:58;96197.75;;;4.44;100.00
8298;BME280;4187;42.778;23.242;2022-12-18T03:02:31;96202.81;;;4.47;100.00
8298;BME280;4187;42.778;23.242;2022-12-18T03:05:04;96213.41;;;4.44;100.00
8298;BME280;4187;42.778;23.242;2022-12-18T03:07:38;96220.34;;;4.45;100.00
8298;BME280;4187;42.778;23.242;2022-12-18T03:10:09;96221.69;;;4.52;100.00
8298;BME280;4187;42.778;23.242;2022-12-18T03:12:42;96216.13;;;4.58;100.00
8298;BME280;4187;42.778;23.242;2022-12-18T03:15:13;96213.44;;;4.59;100.00
8298;BME280;4187;42.778;23.242;2022-12-18T03:17:44;96211.91;;;4.55;100.00
8298;BME280;4187;42.778;23.242;2022-12-18T03:20:17;96211.00;;;4.56;100.00
8298;BME280;4187;42.778;23.242;2022-12-18T03:22:49;96217.31;;;4.52;100.00
8298;BME280;4187;42.778;23.242;2022-12-18T03:25:19;96227.19;;;4.47;100.00
8298;BME280;4187;42.778;23.242;2022-12-18T03:27:50;96221.25;;;4.44;100.00
8298;BME280;4187;42.778;23.242;2022-12-18T03:30:18;96237.47;;;4.50;100.00
8298;BME280;4187;42.778;23.242;2022-12-18T03:32:48;96239.06;;;4.53;100.00
8298;BME280;4187;42.778;23.242;2022-12-18T03:35:19;96250.09;;;4.42;100.00
8298;BME280;4187;42.778;23.242;2022-12-18T03:37:47;96252.72;;;4.42;100.00
8298;BME280;4187;42.778;23.242;2022-12-18T03:40:15;96257.25;;;4.39;100.00
8298;BME280;4187;42.778;23.242;2022-12-18T03:42:48;96263.50;;;4.36;100.00
8298;BME280;4187;42.778;23.242;2022-12-18T03:45:21;96266.88;;;4.38;100.00
8298;BME280;4187;42.778;23.242;2022-12-18T03:47:57;96266.47;;;4.46;100.00
8298;BME280;4187;42.778;23.242;2022-12-18T03:50:34;96256.03;;;4.46;100.00
8298;BME280;4187;42.778;23.242;2022-12-18T03:53:09;96268.91;;;4.49;100.00
8298;BME280;4187;42.778;23.242;2022-12-18T03:55:41;96268.47;;;4.41;100.00
8298;BME280;4187;42.778;23.242;2022-12-18T03:58:11;96251.72;;;4.29;100.00
8298;BME280;4187;42.778;23.242;2022-12-18T04:00:40;96272.28;;;4.35;100.00
8298;BME280;4187;42.778;23.242;2022-12-18T04:03:07;96272.19;;;4.37;100.00
8298;BME280;4187;42.778;23.242;2022-12-18T04:05:36;96271.34;;;4.36;100.00
8298;BME280;4187;42.778;23.242;2022-12-18T04:08:04;96259.44;;;4.31;100.00
8298;BME280;4187;42.778;23.242;2022-12-18T04:10:31;96272.63;;;4.29;100.00
8298;BME280;4187;42.778;23.242;2022-12-18T04:12:58;96274.28;;;4.30;100.00
8298;BME280;4187;42.778;23.242;2022-12-18T04:15:26;96274.53;;;4.26;100.00
8298;BME280;4187;42.778;23.242;2022-12-18T04:17:53;96277.31;;;4.22;100.00
8298;BME280;4187;42.778;23.242;2022-12-18T04:20:20;96278.31;;;4.20;100.00
8298;BME280;4187;42.778;23.242;2022-12-18T04:22:47;96278.47;;;4.17;100.00
8298;BME280;4187;42.778;23.242;2022-12-18T04:25:14;96277.56;;;4.18;100.00
8298;BME280;4187;42.778;23.242;2022-12-18T04:27:41;96237.25;;;3.91;100.00
8298;BME280;4187;42.778;23.242;2022-12-18T04:30:09;96287.06;;;4.19;100.00
8298;BME280;4187;42.778;23.242;2022-12-18T04:32:37;96294.75;;;4.22;100.00
8298;BME280;4187;42.778;23.242;2022-12-18T04:35:04;96305.19;;;4.22;100.00
8298;BME280;4187;42.778;23.242;2022-12-18T04:37:35;96300.81;;;4.22;100.00
8298;BME280;4187;42.778;23.242;2022-12-18T04:40:03;96273.66;;;3.94;100.00
8298;BME280;4187;42.778;23.242;2022-12-18T04:42:30;96310.34;;;4.08;100.00
8298;BME280;4187;42.778;23.242;2022-12-18T04:44:56;96317.91;;;4.12;100.00
8298;BME280;4187;42.778;23.242;2022-12-18T04:47:23;96323.22;;;4.11;100.00
8298;BME280;4187;42.778;23.242;2022-12-18T04:49:51;96271.00;;;3.78;100.00
8298;BME280;4187;42.778;23.242;2022-12-18T04:52:18;96323.22;;;4.11;100.00
8298;BME280;4187;42.778;23.242;2022-12-18T04:54:45;96325.81;;;4.11;100.00
8298;BME280;4187;42.778;23.242;2022-12-18T04:57:12;96336.22;;;4.12;100.00
8298;BME280;4187;42.778;23.242;2022-12-18T04:59:39;96338.38;;;4.04;100.00
8298;BME280;4187;42.778;23.242;2022-12-18T05:02:05;96342.84;;;4.02;100.00
8298;BME280;4187;42.778;23.242;2022-12-18T05:04:32;96317.28;;;3.92;100.00
8298;BME280;4187;42.778;23.242;2022-12-18T05:07:00;96342.06;;;4.00;100.00
8298;BME280;4187;42.778;23.242;2022-12-18T05:09:27;96349.88;;;4.00;100.00
8298;BME280;4187;42.778;23.242;2022-12-18T05:11:54;96356.28;;;3.95;100.00
8298;BME280;4187;42.778;23.242;2022-12-18T05:14:21;96360.44;;;3.99;100.00
8298;BME280;4187;42.778;23.242;2022-12-18T05:16:48;96369.25;;;3.96;100.00
8298;BME280;4187;42.778;23.242;2022-12-18T05:19:15;96375.66;;;3.91;100.00
8298;BME280;4187;42.778;23.242;2022-12-18T05:21:42;96377.34;;;3.92;100.00
8298;BME280;4187;42.778;23.242;2022-12-18T05:24:10;96380.88;;;3.91;100.00
8298;BME280;4187;42.778;23.242;2022-12-18T05:26:37;96382.31;;;3.96;100.00
8298;BME280;4187;42.778;23.242;2022-12-18T05:29:03;96361.28;;;3.82;100.00
8298;BME280;4187;42.778;23.242;2022-12-18T05:31:30;96389.91;;;4.01;100.00
8298;BME280;4187;42.778;23.242;2022-12-18T05:33:57;96393.06;;;3.90;100.00
8298;BME280;4187;42.778;23.242;2022-12-18T05:36:24;96363.69;;;3.70;100.00
8298;BME280;4187;42.778;23.242;2022-12-18T05:38:51;96397.44;;;3.90;100.00
8298;BME280;4187;42.778;23.242;2022-12-18T05:41:19;96390.84;;;3.83;100.00
8298;BME280;4187;42.778;23.242;2022-12-18T05:43:46;96396.84;;;3.85;100.00
8298;BME280;4187;42.778;23.242;2022-12-18T05:46:14;96398.94;;;3.78;100.00
8298;BME280;4187;42.778;23.242;2022-12-18T05:48:43;96403.06;;;3.82;100.00
8298;BME280;4187;42.778;23.242;2022-12-18T05:51:12;96410.00;;;3.83;100.00
8298;BME280;4187;42.778;23.242;2022-12-18T05:53:40;96413.34;;;3.85;100.00
8298;BME280;4187;42.778;23.242;2022-12-18T05:56:09;96421.50;;;3.79;100.00
8298;BME280;4187;42.778;23.242;2022-12-18T05:58:38;96421.44;;;3.81;100.00
8298;BME280;4187;42.778;23.242;2022-12-18T06:01:09;96423.94;;;3.82;100.00
8298;BME280;4187;42.778;23.242;2022-12-18T06:03:37;96439.47;;;3.85;100.00
8298;BME280;4187;42.778;23.242;2022-12-18T06:06:11;96446.69;;;3.80;100.00
8298;BME280;4187;42.778;23.242;2022-12-18T06:08:38;96448.34;;;3.81;100.00
8298;BME280;4187;42.778;23.242;2022-12-18T06:11:05;96448.31;;;3.83;100.00
8298;BME280;4187;42.778;23.242;2022-12-18T06:13:32;96457.00;;;3.83;100.00
8298;BME280;4187;42.778;23.242;2022-12-18T06:16:03;96450.91;;;3.83;100.00
8298;BME280;4187;42.778;23.242;2022-12-18T06:18:30;96426.63;;;3.63;100.00
8298;BME280;4187;42.778;23.242;2022-12-18T06:21:00;96450.75;;;3.86;100.00
8298;BME280;4187;42.778;23.242;2022-12-18T06:23:27;96461.34;;;3.83;100.00
8298;BME280;4187;42.778;23.242;2022-12-18T06:25:54;96463.59;;;3.90;100.00
8298;BME280;4187;42.778;23.242;2022-12-18T06:28:20;96473.88;;;3.93;100.00
8298;BME280;4187;42.778;23.242;2022-12-18T06:30:48;96477.19;;;3.97;100.00
8298;BME280;4187;42.778;23.242;2022-12-18T06:33:16;96479.50;;;3.86;100.00
8298;BME280;4187;42.778;23.242;2022-12-18T06:35:43;96477.56;;;3.89;100.00
8298;BME280;4187;42.778;23.242;2022-12-18T06:38:10;96478.72;;;3.84;100.00
8298;BME280;4187;42.778;23.242;2022-12-18T06:40:37;96480.00;;;3.75;100.00
8298;BME280;4187;42.778;23.242;2022-12-18T06:43:05;96480.53;;;3.82;100.00
8298;BME280;4187;42.778;23.242;2022-12-18T06:45:33;96452.72;;;3.63;100.00
8298;BME280;4187;42.778;23.242;2022-12-18T06:47:59;96488.53;;;3.79;100.00
8298;BME280;4187;42.778;23.242;2022-12-18T06:50:28;96493.97;;;3.74;100.00
8298;BME280;4187;42.778;23.242;2022-12-18T06:52:55;96497.91;;;3.83;100.00
8298;BME280;4187;42.778;23.242;2022-12-18T06:55:22;96497.22;;;3.79;100.00
8298;BME280;4187;42.778;23.242;2022-12-18T06:57:48;96496.53;;;3.76;100.00
8298;BME280;4187;42.778;23.242;2022-12-18T07:00:15;96500.59;;;3.81;100.00
8298;BME280;4187;42.778;23.242;2022-12-18T07:02:42;96500.66;;;3.80;100.00
8298;BME280;4187;42.778;23.242;2022-12-18T07:05:09;96494.44;;;3.82;100.00
8298;BME280;4187;42.778;23.242;2022-12-18T07:07:38;96491.78;;;3.84;100.00
8298;BME280;4187;42.778;23.242;2022-12-18T07:10:05;96499.22;;;3.91;100.00
8298;BME280;4187;42.778;23.242;2022-12-18T07:12:34;96498.25;;;3.94;100.00
8298;BME280;4187;42.778;23.242;2022-12-18T07:15:04;96503.69;;;3.89;100.00
8298;BME280;4187;42.778;23.242;2022-12-18T07:17:32;96511.44;;;3.91;100.00
8298;BME280;4187;42.778;23.242;2022-12-18T07:19:59;96516.09;;;3.84;100.00
8298;BME280;4187;42.778;23.242;2022-12-18T07:22:26;96518.66;;;3.86;100.00
8298;BME280;4187;42.778;23.242;2022-12-18T07:24:54;96519.19;;;3.92;100.00
8298;BME280;4187;42.778;23.242;2022-12-18T07:27:22;96525.19;;;3.94;100.00
8298;BME280;4187;42.778;23.242;2022-12-18T07:29:49;96513.72;;;3.80;100.00
8298;BME280;4187;42.778;23.242;2022-12-18T07:32:15;96523.16;;;3.82;100.00
8298;BME280;4187;42.778;23.242;2022-12-18T07:34:42;96527.84;;;3.76;100.00
8298;BME280;4187;42.778;23.242;2022-12-18T07:37:09;96536.38;;;3.79;100.00
8298;BME280;4187;42.778;23.242;2022-12-18T07:39:36;96535.22;;;3.85;100.00
8298;BME280;4187;42.778;23.242;2022-12-18T07:42:04;96531.63;;;3.87;100.00
8298;BME280;4187;42.778;23.242;2022-12-18T07:44:48;96538.84;;;3.82;100.00
8298;BME280;4187;42.778;23.242;2022-12-18T07:47:15;96541.88;;;3.92;100.00
8298;BME280;4187;42.778;23.242;2022-12-18T07:49:42;96535.56;;;3.96;100.00
8298;BME280;4187;42.778;23.242;2022-12-18T07:52:09;96538.25;;;3.94;100.00
8298;BME280;4187;42.778;23.242;2022-12-18T07:54:37;96541.69;;;3.95;100.00
8298;BME280;4187;42.778;23.242;2022-12-18T07:57:05;96545.94;;;3.97;100.00
8298;BME280;4187;42.778;23.242;2022-12-18T07:59:32;96540.31;;;3.88;100.00
8298;BME280;4187;42.778;23.242;2022-12-18T08:01:59;96551.47;;;3.91;100.00
8298;BME280;4187;42.778;23.242;2022-12-18T08:04:26;96553.47;;;4.03;100.00
8298;BME280;4187;42.778;23.242;2022-12-18T08:06:53;96556.88;;;4.05;100.00
8298;BME280;4187;42.778;23.242;2022-12-18T08:09:20;96570.91;;;4.03;100.00
8298;BME280;4187;42.778;23.242;2022-12-18T08:11:47;96566.91;;;3.96;100.00
8298;BME280;4187;42.778;23.242;2022-12-18T08:14:15;96574.13;;;3.91;100.00
8298;BME280;4187;42.778;23.242;2022-12-18T08:16:42;96563.91;;;3.86;100.00
8298;BME280;4187;42.778;23.242;2022-12-18T08:19:08;96585.94;;;3.98;100.00
8298;BME280;4187;42.778;23.242;2022-12-18T08:21:35;96578.06;;;3.99;100.00
8298;BME280;4187;42.778;23.242;2022-12-18T08:24:04;96563.09;;;3.84;100.00
8298;BME280;4187;42.778;23.242;2022-12-18T08:26:31;96590.50;;;3.94;100.00
8298;BME280;4187;42.778;23.242;2022-12-18T08:28:59;96588.56;;;3.98;100.00
8298;BME280;4187;42.778;23.242;2022-12-18T08:31:29;96595.78;;;3.93;100.00
8298;BME280;4187;42.778;23.242;2022-12-18T08:33:56;96600.72;;;3.99;100.00
8298;BME280;4187;42.778;23.242;2022-12-18T08:36:24;96586.25;;;3.92;100.00
8298;BME280;4187;42.778;23.242;2022-12-18T08:38:51;96604.50;;;4.10;100.00
8298;BME280;4187;42.778;23.242;2022-12-18T08:41:18;96607.19;;;4.09;100.00
8298;BME280;4187;42.778;23.242;2022-12-18T08:43:45;96596.13;;;4.04;100.00
8298;BME280;4187;42.778;23.242;2022-12-18T08:46:35;96609.75;;;4.10;100.00
8298;BME280;4187;42.778;23.242;2022-12-18T08:49:02;96606.41;;;4.07;100.00
8298;BME280;4187;42.778;23.242;2022-12-18T08:51:29;96562.59;;;3.95;100.00
8298;BME280;4187;42.778;23.242;2022-12-18T08:53:56;96603.38;;;4.16;100.00
8298;BME280;4187;42.778;23.242;2022-12-18T08:56:23;96609.28;;;4.19;100.00
8298;BME280;4187;42.778;23.242;2022-12-18T08:58:51;96596.53;;;4.13;100.00
8298;BME280;4187;42.778;23.242;2022-12-18T09:01:19;96611.44;;;4.29;100.00
8298;BME280;4187;42.778;23.242;2022-12-18T09:03:48;96605.22;;;4.31;100.00
8298;BME280;4187;42.778;23.242;2022-12-18T09:06:15;96602.63;;;4.31;100.00
8298;BME280;4187;42.778;23.242;2022-12-18T09:08:43;96605.22;;;4.31;100.00
8298;BME280;4187;42.778;23.242;2022-12-18T09:11:15;96604.00;;;4.38;100.00
8298;BME280;4187;42.778;23.242;2022-12-18T09:13:45;96606.94;;;4.66;100.00
8298;BME280;4187;42.778;23.242;2022-12-18T09:16:11;96599.88;;;4.51;100.00
8298;BME280;4187;42.778;23.242;2022-12-18T09:18:38;96609.00;;;4.60;100.00
8298;BME280;4187;42.778;23.242;2022-12-18T09:21:11;96606.47;;;4.58;100.00
8298;BME280;4187;42.778;23.242;2022-12-18T09:23:38;96609.09;;;4.58;100.00
8298;BME280;4187;42.778;23.242;2022-12-18T09:26:05;96600.78;;;4.50;100.00
8298;BME280;4187;42.778;23.242;2022-12-18T09:28:32;96608.53;;;4.52;100.00
8298;BME280;4187;42.778;23.242;2022-12-18T09:31:03;96610.41;;;4.50;100.00
8298;BME280;4187;42.778;23.242;2022-12-18T09:33:31;96601.84;;;4.46;100.00
8298;BME280;4187;42.778;23.242;2022-12-18T09:35:57;96602.09;;;4.42;100.00
8298;BME280;4187;42.778;23.242;2022-12-18T09:38:28;96610.53;;;4.47;100.00
8298;BME280;4187;42.778;23.242;2022-12-18T09:40:59;96607.78;;;4.50;100.00
8298;BME280;4187;42.778;23.242;2022-12-18T09:43:28;96613.25;;;4.45;100.00
8298;BME280;4187;42.778;23.242;2022-12-18T09:45:59;96606.56;;;4.40;100.00
8298;BME280;4187;42.778;23.242;2022-12-18T09:48:30;96605.09;;;4.34;100.00
8298;BME280;4187;42.778;23.242;2022-12-18T09:51:00;96584.16;;;5.03;100.00
8298;BME280;4187;42.778;23.242;2022-12-18T09:53:32;96599.47;;;5.74;100.00
8298;BME280;4187;42.778;23.242;2022-12-18T09:56:02;96613.47;;;5.58;100.00
8298;BME280;4187;42.778;23.242;2022-12-18T09:58:33;96625.75;;;5.24;100.00
8298;BME280;4187;42.778;23.242;2022-12-18T10:01:09;96615.19;;;5.26;100.00
8298;BME280;4187;42.778;23.242;2022-12-18T10:03:36;96623.00;;;5.10;100.00
8298;BME280;4187;42.778;23.242;2022-12-18T10:06:06;96604.94;;;4.89;100.00
8298;BME280;4187;42.778;23.242;2022-12-18T10:08:42;96608.31;;;4.91;100.00
8298;BME280;4187;42.778;23.242;2022-12-18T10:11:25;96600.94;;;5.31;100.00
8298;BME280;4187;42.778;23.242;2022-12-18T10:13:58;96605.50;;;5.43;100.00
8298;BME280;4187;42.778;23.242;2022-12-18T10:16:33;96598.22;;;5.33;100.00
8298;BME280;4187;42.778;23.242;2022-12-18T10:19:26;96581.44;;;5.85;100.00
8298;BME280;4187;42.778;23.242;2022-12-18T10:22:03;96608.22;;;5.90;100.00
8298;BME280;4187;42.778;23.242;2022-12-18T10:24:59;96609.09;;;5.58;100.00
8298;BME280;4187;42.778;23.242;2022-12-18T10:27:30;96612.28;;;5.48;100.00
8298;BME280;4187;42.778;23.242;2022-12-18T10:29:58;96610.94;;;5.40;100.00
8298;BME280;4187;42.778;23.242;2022-12-18T10:32:27;96615.63;;;5.34;100.00
8298;BME280;4187;42.778;23.242;2022-12-18T10:34:56;96613.94;;;5.33;100.00
8298;BME280;4187;42.778;23.242;2022-12-18T10:37:26;96620.88;;;5.34;100.00
8298;BME280;4187;42.778;23.242;2022-12-18T10:40:09;96603.84;;;5.42;100.00
8298;BME280;4187;42.778;23.242;2022-12-18T10:42:37;96597.50;;;5.47;100.00
8298;BME280;4187;42.778;23.242;2022-12-18T10:45:10;96612.56;;;5.43;100.00
8298;BME280;4187;42.778;23.242;2022-12-18T10:47:42;96603.31;;;5.36;100.00
8298;BME280;4187;42.778;23.242;2022-12-18T10:50:19;96594.84;;;5.31;100.00
8298;BME280;4187;42.778;23.242;2022-12-18T10:52:55;96594.69;;;5.34;100.00
8298;BME280;4187;42.778;23.242;2022-12-18T10:55:28;96601.34;;;5.24;100.00
8298;BME280;4187;42.778;23.242;2022-12-18T10:58:13;96600.22;;;5.61;100.00
8298;BME280;4187;42.778;23.242;2022-12-18T11:00:42;96606.66;;;5.71;100.00
8298;BME280;4187;42.778;23.242;2022-12-18T11:03:29;96608.84;;;5.63;100.00
8298;BME280;4187;42.778;23.242;2022-12-18T11:06:03;96600.81;;;5.66;100.00
8298;BME280;4187;42.778;23.242;2022-12-18T11:08:30;96606.75;;;5.69;100.00
8298;BME280;4187;42.778;23.242;2022-12-18T11:10:58;96598.78;;;5.71;100.00
8298;BME280;4187;42.778;23.242;2022-12-18T11:13:27;96595.84;;;5.61;100.00
8298;BME280;4187;42.778;23.242;2022-12-18T11:15:54;96606.50;;;5.74;100.00
8298;BME280;4187;42.778;23.242;2022-12-18T11:18:26;96610.81;;;5.59;100.00
8298;BME280;4187;42.778;23.242;2022-12-18T11:20:55;96561.94;;;5.27;100.00
8298;BME280;4187;42.778;23.242;2022-12-18T11:23:23;96609.00;;;5.60;100.00
8298;BME280;4187;42.778;23.242;2022-12-18T11:25:52;96609.78;;;5.62;100.00
8298;BME280;4187;42.778;23.242;2022-12-18T11:28:34;96615.94;;;5.61;100.00
8298;BME280;4187;42.778;23.242;2022-12-18T11:31:17;96616.84;;;5.60;100.00
8298;BME280;4187;42.778;23.242;2022-12-18T11:33:48;96622.63;;;5.66;100.00
8298;BME280;4187;42.778;23.242;2022-12-18T11:36:19;96620.69;;;5.70;100.00
8298;BME280;4187;42.778;23.242;2022-12-18T11:38:47;96612.31;;;5.79;100.00
8298;BME280;4187;42.778;23.242;2022-12-18T11:41:20;96604.09;;;5.86;100.00
8298;BME280;4187;42.778;23.242;2022-12-18T11:43:52;96600.38;;;5.90;100.00
8298;BME280;4187;42.778;23.242;2022-12-18T11:46:27;96589.19;;;5.87;100.00
8298;BME280;4187;42.778;23.242;2022-12-18T11:49:02;96597.00;;;5.88;100.00
8298;BME280;4187;42.778;23.242;2022-12-18T11:51:34;96611.53;;;5.94;100.00
8298;BME280;4187;42.778;23.242;2022-12-18T11:54:10;96589.19;;;5.87;100.00
8298;BME280;4187;42.778;23.242;2022-12-18T11:56:43;96595.06;;;5.92;100.00
8298;BME280;4187;42.778;23.242;2022-12-18T11:59:22;96610.25;;;6.01;100.00
8298;BME280;4187;42.778;23.242;2022-12-18T12:01:56;96603.66;;;6.10;100.00
8298;BME280;4187;42.778;23.242;2022-12-18T12:07:23;96604.50;;;6.10;100.00
8298;BME280;4187;42.778;23.242;2022-12-18T12:09:57;96604.56;;;6.09;100.00
8298;BME280;4187;42.778;23.242;2022-12-18T12:12:36;96607.91;;;5.96;100.00
8298;BME280;4187;42.778;23.242;2022-12-18T12:15:23;96599.50;;;5.90;100.00
8298;BME280;4187;42.778;23.242;2022-12-18T12:17:59;96604.25;;;5.99;100.00
8298;BME280;4187;42.778;23.242;2022-12-18T12:20:36;96605.28;;;5.96;100.00
8298;BME280;4187;42.778;23.242;2022-12-18T12:23:16;96604.00;;;5.88;100.00
8298;BME280;4187;42.778;23.242;2022-12-18T12:25:49;96582.59;;;5.80;100.00
8298;BME280;4187;42.778;23.242;2022-12-18T12:28:26;96600.19;;;5.93;100.00
8298;BME280;4187;42.778;23.242;2022-12-18T12:31:05;96606.88;;;5.99;100.00
8298;BME280;4187;42.778;23.242;2022-12-18T12:33:42;96614.47;;;5.88;100.00
8298;BME280;4187;42.778;23.242;2022-12-18T12:36:17;96614.66;;;5.85;100.00
8298;BME280;4187;42.778;23.242;2022-12-18T12:38:51;96608.94;;;5.77;100.00
8298;BME280;4187;42.778;23.242;2022-12-18T12:41:22;96603.38;;;5.67;100.00
8298;BME280;4187;42.778;23.242;2022-12-18T12:44:20;96581.16;;;5.59;100.00
8298;BME280;4187;42.778;23.242;2022-12-18T12:46:52;96615.03;;;5.62;100.00
8298;BME280;4187;42.778;23.242;2022-12-18T12:49:23;96600.31;;;5.59;100.00
8298;BME280;4187;42.778;23.242;2022-12-18T12:51:56;96619.91;;;5.68;100.00
8298;BME280;4187;42.778;23.242;2022-12-18T12:54:28;96620.50;;;5.57;100.00
8298;BME280;4187;42.778;23.242;2022-12-18T12:56:59;96615.50;;;5.53;100.00
8298;BME280;4187;42.778;23.242;2022-12-18T12:59:34;96616.09;;;5.42;100.00
8298;BME280;4187;42.778;23.242;2022-12-18T13:02:16;96626.81;;;5.37;100.00
8298;BME280;4187;42.778;23.242;2022-12-18T13:04:51;96596.53;;;5.16;100.00
8298;BME280;4187;42.778;23.242;2022-12-18T13:07:23;96632.19;;;5.34;100.00
8298;BME280;4187;42.778;23.242;2022-12-18T13:10:14;96633.72;;;5.38;100.00
8298;BME280;4187;42.778;23.242;2022-12-18T13:12:53;96606.81;;;5.19;100.00
8298;BME280;4187;42.778;23.242;2022-12-18T13:15:34;96634.88;;;5.33;100.00
8298;BME280;4187;42.778;23.242;2022-12-18T13:18:14;96614.50;;;5.22;100.00
8298;BME280;4187;42.778;23.242;2022-12-18T13:20:44;96640.91;;;5.35;100.00
8298;BME280;4187;42.778;23.242;2022-12-18T13:23:38;96648.06;;;5.31;100.00
8298;BME280;4187;42.778;23.242;2022-12-18T13:26:32;96640.97;;;5.33;100.00
8298;BME280;4187;42.778;23.242;2022-12-18T13:29:00;96650.84;;;5.28;100.00
8298;BME280;4187;42.778;23.242;2022-12-18T13:34:36;96634.22;;;5.12;100.00